createdAt,value
2018-12-05T00:00:50.201Z,17.2
2018-12-05T00:02:50.054Z,16.5
2018-12-05T00:04:50.173Z,16.5
2018-12-05T00:06:50.177Z,14.6
2018-12-05T00:08:50.078Z,20.3
2018-12-05T00:10:49.903Z,16.9
2018-12-05T00:12:49.655Z,14.9
2018-12-05T00:14:49.435Z,14.9
2018-12-05T00:16:49.462Z,19.0
2018-12-05T00:18:50.299Z,18.1
2018-12-05T00:20:50.077Z,16.0
2018-12-05T00:22:49.982Z,16.3
2018-12-05T00:24:49.808Z,16.3
2018-12-05T00:26:49.894Z,18.8
2018-12-05T00:28:49.764Z,16.0
2018-12-05T00:30:49.680Z,18.9
2018-12-05T00:32:49.517Z,18.9
2018-12-05T00:34:49.664Z,14.8
2018-12-05T00:36:49.715Z,14.2
2018-12-05T00:38:49.626Z,15.4
2018-12-05T00:40:50.429Z,15.4
2018-12-05T00:42:50.291Z,14.7
2018-12-05T00:44:50.099Z,14.7
2018-12-05T00:46:50.097Z,14.5
2018-12-05T00:48:49.927Z,17.7
2018-12-05T00:50:49.717Z,17.3
2018-12-05T00:52:49.689Z,13.6
2018-12-05T00:54:49.512Z,13.6
2018-12-05T00:56:49.597Z,15.3
2018-12-05T00:58:49.433Z,16.2
2018-12-05T01:00:50.254Z,15.7
2018-12-05T01:02:50.143Z,14.3
2018-12-05T01:04:50.351Z,14.3
2018-12-05T01:06:50.362Z,16.6
2018-12-05T01:08:50.126Z,14.2
2018-12-05T01:10:49.938Z,12.0
2018-12-05T01:12:49.775Z,12.0
2018-12-05T01:14:49.477Z,17.4
2018-12-05T01:16:49.480Z,12.7
2018-12-05T01:18:50.300Z,13.7
2018-12-05T01:20:50.133Z,13.4
2018-12-05T01:22:49.913Z,13.4
2018-12-05T01:24:49.769Z,13.5
2018-12-05T01:26:49.788Z,14.5
2018-12-05T01:28:49.610Z,14.5
2018-12-05T01:30:49.465Z,15.0
2018-12-05T01:32:50.275Z,15.0
2018-12-05T01:34:49.454Z,15.8
2018-12-05T01:36:49.556Z,12.8
2018-12-05T01:38:49.450Z,13.7
2018-12-05T01:40:50.348Z,15.2
2018-12-05T01:42:50.148Z,15.2
2018-12-05T01:44:50.010Z,13.1
2018-12-05T01:46:50.014Z,15.8
2018-12-05T01:48:49.820Z,15.2
2018-12-05T01:50:49.709Z,12.2
2018-12-05T01:52:49.491Z,12.2
2018-12-05T01:54:50.330Z,10.5
2018-12-05T01:56:49.456Z,12.1
2018-12-05T01:58:50.223Z,12.1
2018-12-05T02:00:50.110Z,12.2
2018-12-05T02:02:49.890Z,14.1
2018-12-05T02:04:50.072Z,14.7
2018-12-05T02:06:50.116Z,13.3
2018-12-05T02:08:49.908Z,13.3
2018-12-05T02:10:49.690Z,13.6
2018-12-05T02:12:49.605Z,14.6
2018-12-05T02:14:49.863Z,15.2
2018-12-05T02:16:49.961Z,15.3
2018-12-05T02:18:49.877Z,15.3
2018-12-05T02:20:49.820Z,16.3
2018-12-05T02:22:49.734Z,16.3
2018-12-05T02:24:49.618Z,14.1
2018-12-05T02:26:49.782Z,14.1
2018-12-05T02:28:49.840Z,16.0
2018-12-05T02:30:49.686Z,16.0
2018-12-05T02:32:49.638Z,14.9
2018-12-05T02:34:49.956Z,13.0
2018-12-05T02:36:49.920Z,15.4
2018-12-05T02:38:49.767Z,15.4
2018-12-05T02:40:49.641Z,13.5
2018-12-05T02:42:49.500Z,13.2
2018-12-05T02:44:50.283Z,17.2
2018-12-05T02:46:50.364Z,14.1
2018-12-05T02:48:50.166Z,14.1
2018-12-05T02:50:50.015Z,16.9
2018-12-05T02:52:49.815Z,16.9
2018-12-05T02:54:49.695Z,13.8
2018-12-05T02:56:49.788Z,13.8
2018-12-05T02:58:49.680Z,15.6
2018-12-05T03:00:49.500Z,17.4
2018-12-05T03:02:50.394Z,15.0
2018-12-05T03:04:49.590Z,14.9
2018-12-05T03:06:49.714Z,13.8
2018-12-05T03:08:50.287Z,13.8
2018-12-05T03:10:50.095Z,12.6
2018-12-05T03:12:49.866Z,14.0
2018-12-05T03:14:49.682Z,14.4
2018-12-05T03:16:49.775Z,13.6
2018-12-05T03:18:49.617Z,13.6
2018-12-05T03:20:50.439Z,11.4
2018-12-05T03:22:50.218Z,11.4
2018-12-05T03:24:50.052Z,13.2
2018-12-05T03:26:50.129Z,13.3
2018-12-05T03:28:49.935Z,13.3
2018-12-05T03:30:49.788Z,12.8
2018-12-05T03:32:49.609Z,12.9
2018-12-05T03:34:49.932Z,13.1
2018-12-05T03:36:49.956Z,13.1
2018-12-05T03:38:49.817Z,13.8
2018-12-05T03:40:49.659Z,13.8
2018-12-05T03:42:49.521Z,13.4
2018-12-05T03:44:50.295Z,15.9
2018-12-05T03:46:50.267Z,15.9
2018-12-05T03:48:50.153Z,15.1
2018-12-05T03:50:49.939Z,18.0
2018-12-05T03:52:49.757Z,14.9
2018-12-05T03:54:49.650Z,13.9
2018-12-05T03:56:49.669Z,13.9
2018-12-05T03:58:49.546Z,13.0
2018-12-05T04:00:49.478Z,14.3
2018-12-05T04:02:50.235Z,14.3
2018-12-05T04:04:50.325Z,15.6
2018-12-05T04:06:50.278Z,15.6
2018-12-05T04:08:50.080Z,14.7
2018-12-05T04:10:49.876Z,13.2
2018-12-05T04:12:49.689Z,16.6
2018-12-05T04:14:49.579Z,18.8
2018-12-05T04:16:49.634Z,18.8
2018-12-05T04:18:49.472Z,18.8
2018-12-05T04:20:50.339Z,16.8
2018-12-05T04:22:50.130Z,14.3
2018-12-05T04:24:50.005Z,14.3
2018-12-05T04:26:50.042Z,13.2
2018-12-05T04:28:49.931Z,14.2
2018-12-05T04:30:49.739Z,16.3
2018-12-05T04:32:49.614Z,16.3
2018-12-05T04:34:49.881Z,16.8
2018-12-05T04:36:49.884Z,15.5
2018-12-05T04:38:49.694Z,15.4
2018-12-05T04:40:49.562Z,15.4
2018-12-05T04:42:49.547Z,17.5
2018-12-05T04:44:50.427Z,17.5
2018-12-05T04:46:49.478Z,16.8
2018-12-05T04:48:50.329Z,17.5
2018-12-05T04:50:50.235Z,19.0
2018-12-05T04:52:50.079Z,19.0
2018-12-05T04:54:49.868Z,18.0
2018-12-05T04:56:49.842Z,16.8
2018-12-05T04:58:49.686Z,14.7
2018-12-05T05:00:49.542Z,16.1
2018-12-05T05:02:49.474Z,16.1
2018-12-05T05:04:49.596Z,13.7
2018-12-05T05:06:49.731Z,15.5
2018-12-05T05:08:49.614Z,20.3
2018-12-05T05:10:49.465Z,18.4
2018-12-05T05:12:50.303Z,18.4
2018-12-05T05:14:50.105Z,15.9
2018-12-05T05:16:50.163Z,14.4
2018-12-05T05:18:50.060Z,16.0
2018-12-05T05:20:49.866Z,16.0
2018-12-05T05:22:49.697Z,16.3
2018-12-05T05:24:49.477Z,15.8
2018-12-05T05:26:50.206Z,14.8
2018-12-05T05:28:50.071Z,15.4
2018-12-05T05:30:49.914Z,14.5
2018-12-05T05:32:49.758Z,14.5
2018-12-05T05:34:50.025Z,16.2
2018-12-05T05:36:50.115Z,16.4
2018-12-05T05:38:49.921Z,17.9
2018-12-05T05:40:49.732Z,17.9
2018-12-05T05:42:49.567Z,16.4
2018-12-05T05:44:50.412Z,17.3
2018-12-05T05:46:49.620Z,18.9
2018-12-05T05:48:49.436Z,16.7
2018-12-05T05:50:50.262Z,19.4
2018-12-05T05:52:50.138Z,19.4
2018-12-05T05:54:49.953Z,19.9
2018-12-05T05:56:49.976Z,15.3
2018-12-05T05:58:49.864Z,17.7
2018-12-05T06:00:49.699Z,17.7
2018-12-05T06:02:49.565Z,16.7
2018-12-05T06:04:49.937Z,15.3
2018-12-05T06:06:49.960Z,15.3
2018-12-05T06:08:49.854Z,18.8
2018-12-05T06:10:49.676Z,18.8
2018-12-05T06:12:49.496Z,19.3
2018-12-05T06:14:50.243Z,24.7
2018-12-05T06:16:50.342Z,20.8
2018-12-05T06:18:50.242Z,26.9
2018-12-05T06:20:50.167Z,26.9
2018-12-05T06:22:50.054Z,19.5
2018-12-05T06:24:49.863Z,19.9
2018-12-05T06:26:49.887Z,22.3
2018-12-05T06:28:49.677Z,22.3
2018-12-05T06:30:49.502Z,20.5
2018-12-05T06:32:50.298Z,16.7
2018-12-05T06:34:49.475Z,17.2
2018-12-05T06:36:49.620Z,17.7
2018-12-05T06:38:49.449Z,17.7
2018-12-05T06:40:50.340Z,15.4
2018-12-05T06:42:50.152Z,16.7
2018-12-05T06:44:50.006Z,23.7
2018-12-05T06:46:49.940Z,23.7
2018-12-05T06:48:49.702Z,22.0
2018-12-05T06:50:49.553Z,17.5
2018-12-05T06:52:50.368Z,16.3
2018-12-05T06:54:50.199Z,16.3
2018-12-05T06:56:50.291Z,14.1
2018-12-05T06:58:50.096Z,14.1
2018-12-05T07:00:49.913Z,17.4
2018-12-05T07:02:49.826Z,18.3
2018-12-05T07:04:49.934Z,18.3
2018-12-05T07:06:50.019Z,17.0
2018-12-05T07:08:49.869Z,17.0
2018-12-05T07:10:49.673Z,16.9
2018-12-05T07:12:49.459Z,17.5
2018-12-05T07:14:50.325Z,17.5
2018-12-05T07:16:50.298Z,19.0
2018-12-05T07:18:50.051Z,19.0
2018-12-05T07:20:49.916Z,16.3
2018-12-05T07:22:49.720Z,21.4
2018-12-05T07:24:49.606Z,17.4
2018-12-05T07:26:49.598Z,13.6
2018-12-05T07:28:49.440Z,13.6
2018-12-05T07:30:50.227Z,17.6
2018-12-05T07:32:50.001Z,12.7
2018-12-05T07:34:50.205Z,14.5
2018-12-05T07:36:50.188Z,13.9
2018-12-05T07:38:49.980Z,13.9
2018-12-05T07:40:49.832Z,18.7
2018-12-05T07:42:49.573Z,18.7
2018-12-05T07:44:50.469Z,17.7
2018-12-05T07:46:50.433Z,17.7
2018-12-05T07:48:50.258Z,15.8
2018-12-05T07:50:50.096Z,35.3
2018-12-05T07:52:49.925Z,35.3
2018-12-05T07:54:49.727Z,35.3
2018-12-05T07:56:49.701Z,21.6
2018-12-05T07:58:49.602Z,19.5
2018-12-05T08:00:49.471Z,23.2
2018-12-05T08:02:50.297Z,23.2
2018-12-05T08:04:49.549Z,30.0
2018-12-05T08:06:49.563Z,18.4
2018-12-05T08:08:50.440Z,14.7
2018-12-05T08:10:50.285Z,15.7
2018-12-05T08:12:50.086Z,15.8
2018-12-05T08:14:49.908Z,15.8
2018-12-05T08:16:50.107Z,12.8
2018-12-05T08:18:49.922Z,17.6
2018-12-05T08:20:49.713Z,15.4
2018-12-05T08:22:49.487Z,14.0
2018-12-05T08:24:50.263Z,14.0
2018-12-05T08:26:50.314Z,12.0
2018-12-05T08:28:50.075Z,11.9
2018-12-05T08:30:49.897Z,12.2
2018-12-05T08:32:49.827Z,12.4
2018-12-05T08:34:50.003Z,12.4
2018-12-05T08:36:50.121Z,17.1
2018-12-05T08:38:49.926Z,13.5
2018-12-05T08:40:49.808Z,13.5
2018-12-05T08:42:49.588Z,16.3
2018-12-05T08:44:49.454Z,16.5
2018-12-05T08:46:50.440Z,14.1
2018-12-05T08:48:50.282Z,14.9
2018-12-05T08:50:49.833Z,13.1
2018-12-05T08:52:49.659Z,13.8
2018-12-05T08:54:49.454Z,13.8
2018-12-05T08:56:49.514Z,11.3
2018-12-05T08:58:50.292Z,16.6
2018-12-05T09:00:50.057Z,16.6
2018-12-05T09:02:49.874Z,16.6
2018-12-05T09:04:49.863Z,16.6
2018-12-05T09:06:49.776Z,11.6
2018-12-05T09:08:49.586Z,15.4
2018-12-05T09:10:49.577Z,14.5
2018-12-05T09:12:49.621Z,26.1
2018-12-05T09:14:49.553Z,26.1
2018-12-05T09:16:49.679Z,17.5
2018-12-05T09:18:49.707Z,16.7
2018-12-05T09:20:49.738Z,13.1
2018-12-05T09:22:49.732Z,13.1
2018-12-05T09:24:49.712Z,13.1
2018-12-05T09:26:49.943Z,10.7
2018-12-05T09:28:56.917Z,16.0
2018-12-05T09:30:50.273Z,11.2
2018-12-05T09:32:50.291Z,11.2
2018-12-05T09:34:49.556Z,10.7
2018-12-05T09:36:49.731Z,11.5
2018-12-05T09:38:49.870Z,10.4
2018-12-05T09:40:49.830Z,16.4
2018-12-05T09:42:49.822Z,16.4
2018-12-05T09:44:49.848Z,14.3
2018-12-05T09:46:49.885Z,12.3
2018-12-05T09:48:49.858Z,12.7
2018-12-05T09:50:49.840Z,15.2
2018-12-05T09:52:49.852Z,15.2
2018-12-05T09:54:49.807Z,12.6
2018-12-05T09:56:49.978Z,14.2
2018-12-05T09:58:49.906Z,12.3
2018-12-05T10:00:49.990Z,12.3
2018-12-05T10:02:49.982Z,12.2
2018-12-05T10:04:49.481Z,12.4
2018-12-05T10:06:49.767Z,8.1
2018-12-05T10:08:49.746Z,15.9
2018-12-05T10:10:49.760Z,15.9
2018-12-05T10:12:49.752Z,14.1
2018-12-05T10:14:49.734Z,11.7
2018-12-05T10:16:49.925Z,12.7
2018-12-05T10:18:49.870Z,11.4
2018-12-05T10:20:55.888Z,11.4
2018-12-05T10:22:50.248Z,10.3
2018-12-05T10:24:50.137Z,12.1
2018-12-05T10:26:49.497Z,13.2
2018-12-05T10:28:50.416Z,13.2
2018-12-05T10:30:49.581Z,12.7
2018-12-05T10:32:49.687Z,11.8
2018-12-05T10:34:49.942Z,10.8
2018-12-05T10:36:50.159Z,10.9
2018-12-05T10:38:50.128Z,10.9
2018-12-05T10:40:50.092Z,13.2
2018-12-05T10:42:50.143Z,15.7
2018-12-05T10:44:50.194Z,11.5
2018-12-05T10:46:50.332Z,11.4
2018-12-05T10:48:50.392Z,11.4
2018-12-05T10:50:49.472Z,9.9
2018-12-05T10:52:49.547Z,12.2
2018-12-05T10:54:49.645Z,13.8
2018-12-05T10:56:49.895Z,10.2
2018-12-05T10:58:49.932Z,10.2
2018-12-05T11:00:49.926Z,12.9
2018-12-05T11:02:49.912Z,14.0
2018-12-05T11:04:50.182Z,13.0
2018-12-05T11:06:50.378Z,13.0
2018-12-05T11:08:49.443Z,12.4
2018-12-05T11:10:49.542Z,11.8
2018-12-05T11:12:49.538Z,8.4
2018-12-05T11:14:49.592Z,11.0
2018-12-05T11:16:49.803Z,10.8
2018-12-05T11:18:49.776Z,10.8
2018-12-05T11:20:49.782Z,11.0
2018-12-05T11:22:49.806Z,13.6
2018-12-05T11:24:49.823Z,10.6
2018-12-05T11:26:50.090Z,9.8
2018-12-05T11:28:50.034Z,9.8
2018-12-05T11:30:50.022Z,8.3
2018-12-05T11:32:50.148Z,10.0
2018-12-05T11:34:49.565Z,14.8
2018-12-05T11:36:49.750Z,14.8
2018-12-05T11:38:49.735Z,12.7
2018-12-05T11:40:49.661Z,12.5
2018-12-05T11:42:49.762Z,13.0
2018-12-05T11:44:49.789Z,17.2
2018-12-05T11:46:50.015Z,17.2
2018-12-05T11:48:49.990Z,9.8
2018-12-05T11:50:49.899Z,11.3
2018-12-05T11:52:49.825Z,11.6
2018-12-05T11:54:49.723Z,10.1
2018-12-05T11:56:49.867Z,10.1
2018-12-05T11:58:49.799Z,10.8
2018-12-05T12:00:49.787Z,14.1
2018-12-05T12:02:49.739Z,9.2
2018-12-05T12:04:49.993Z,9.2
2018-12-05T12:06:50.139Z,12.1
2018-12-05T12:08:50.167Z,12.9
2018-12-05T12:10:50.089Z,14.0
2018-12-05T12:12:50.074Z,13.5
2018-12-05T12:14:49.969Z,13.5
2018-12-05T12:16:50.112Z,13.5
2018-12-05T12:18:50.047Z,13.1
2018-12-05T12:20:50.049Z,9.9
2018-12-05T12:22:49.970Z,10.5
2018-12-05T12:24:49.889Z,7.7
2018-12-05T12:26:49.938Z,7.7
2018-12-05T12:28:49.899Z,10.1
2018-12-05T12:30:49.862Z,10.1
2018-12-05T12:32:49.851Z,10.6
2018-12-05T12:34:50.147Z,10.6
2018-12-05T12:36:50.405Z,19.2
2018-12-05T12:38:50.402Z,15.0
2018-12-05T12:40:49.461Z,8.2
2018-12-05T12:42:50.421Z,10.4
2018-12-05T12:44:49.454Z,10.4
2018-12-05T12:46:49.750Z,7.6
2018-12-05T12:48:49.629Z,11.8
2018-12-05T12:50:49.675Z,6.8
2018-12-05T12:52:49.664Z,6.8
2018-12-05T12:54:49.643Z,7.4
2018-12-05T12:56:49.851Z,6.6
2018-12-05T12:58:49.814Z,11.8
2018-12-05T13:00:49.836Z,11.8
2018-12-05T13:02:49.804Z,7.1
2018-12-05T13:04:50.069Z,7.1
2018-12-05T13:06:50.242Z,9.5
2018-12-05T13:08:50.218Z,9.6
2018-12-05T13:10:50.255Z,8.1
2018-12-05T13:12:50.225Z,9.6
2018-12-05T13:14:50.258Z,9.6
2018-12-05T13:16:49.444Z,9.2
2018-12-05T13:18:49.520Z,9.2
2018-12-05T13:20:49.628Z,8.4
2018-12-05T13:22:49.725Z,8.4
2018-12-05T13:24:49.692Z,9.2
2018-12-05T13:26:49.875Z,9.7
2018-12-05T13:28:49.963Z,9.4
2018-12-05T13:30:49.941Z,9.5
2018-12-05T13:32:49.962Z,9.5
2018-12-05T13:34:50.357Z,13.4
2018-12-05T13:36:49.687Z,13.4
2018-12-05T13:38:49.666Z,47.8
2018-12-05T13:40:49.756Z,47.8
2018-12-05T13:42:49.709Z,10.5
2018-12-05T13:44:49.707Z,10.4
2018-12-05T13:46:49.846Z,11.9
2018-12-05T13:48:49.816Z,11.1
2018-12-05T13:50:49.807Z,11.1
2018-12-05T13:52:49.771Z,9.5
2018-12-05T13:54:49.919Z,11.5
2018-12-05T13:56:49.452Z,11.1
2018-12-05T13:58:49.601Z,11.1
2018-12-05T14:00:50.082Z,10.0
2018-12-05T14:02:50.061Z,9.0
2018-12-05T14:04:49.875Z,7.8
2018-12-05T14:06:50.074Z,10.2
2018-12-05T14:08:50.098Z,10.2
2018-12-05T14:10:50.058Z,10.2
2018-12-05T14:12:50.158Z,12.7
2018-12-05T14:14:50.202Z,6.2
2018-12-05T14:16:49.454Z,6.2
2018-12-05T14:18:49.437Z,9.1
2018-12-05T14:20:50.420Z,9.1
2018-12-05T14:22:49.479Z,9.2
2018-12-05T14:24:49.450Z,10.8
2018-12-05T14:26:49.776Z,5.8
2018-12-05T14:28:49.834Z,9.2
2018-12-05T14:30:49.847Z,9.2
2018-12-05T14:32:49.867Z,10.2
2018-12-05T14:34:50.124Z,10.1
2018-12-05T14:36:50.403Z,10.1
2018-12-05T14:38:50.460Z,10.8
2018-12-05T14:40:49.488Z,10.8
2018-12-05T14:42:50.433Z,7.1
2018-12-05T14:44:49.473Z,8.8
2018-12-05T14:46:49.775Z,7.9
2018-12-05T14:48:49.748Z,11.5
2018-12-05T14:50:49.830Z,11.5
2018-12-05T14:52:49.838Z,9.3
2018-12-05T14:54:49.816Z,9.2
2018-12-05T14:56:49.975Z,9.2
2018-12-05T14:58:49.951Z,6.4
2018-12-05T15:00:50.217Z,7.7
2018-12-05T15:02:50.205Z,9.0
2018-12-05T15:04:49.577Z,9.1
2018-12-05T15:06:49.841Z,9.1
2018-12-05T15:08:49.903Z,9.1
2018-12-05T15:10:49.864Z,7.8
2018-12-05T15:12:49.824Z,8.1
2018-12-05T15:14:49.822Z,8.7
2018-12-05T15:16:49.990Z,8.7
2018-12-05T15:18:49.950Z,10.0
2018-12-05T15:20:49.897Z,7.3
2018-12-05T15:22:49.834Z,9.4
2018-12-05T15:24:49.861Z,6.8
2018-12-05T15:26:50.071Z,6.8
2018-12-05T15:28:50.056Z,7.5
2018-12-05T15:30:50.026Z,8.2
2018-12-05T15:32:50.051Z,11.7
2018-12-05T15:34:52.046Z,6.3
2018-12-05T15:36:49.499Z,6.3
2018-12-05T15:38:49.471Z,11.5
2018-12-05T15:40:49.446Z,9.8
2018-12-05T15:42:50.366Z,9.6
2018-12-05T15:44:50.408Z,9.6
2018-12-05T15:46:49.665Z,9.2
2018-12-05T15:48:49.677Z,7.8
2018-12-05T15:50:49.673Z,10.4
2018-12-05T15:52:49.723Z,8.7
2018-12-05T15:54:49.702Z,9.0
2018-12-05T15:56:49.884Z,9.0
2018-12-05T15:58:49.866Z,9.5
2018-12-05T16:00:49.839Z,7.0
2018-12-05T16:02:49.850Z,14.3
2018-12-05T16:04:50.125Z,10.0
2018-12-05T16:06:50.327Z,10.0
2018-12-05T16:08:50.296Z,8.5
2018-12-05T16:10:50.325Z,7.1
2018-12-05T16:12:49.516Z,10.0
2018-12-05T16:14:49.475Z,9.9
2018-12-05T16:16:49.793Z,9.9
2018-12-05T16:18:49.800Z,7.9
2018-12-05T16:20:49.742Z,9.2
2018-12-05T16:22:49.693Z,9.1
2018-12-05T16:24:49.665Z,7.3
2018-12-05T16:26:49.456Z,7.3
2018-12-05T16:28:49.453Z,8.7
2018-12-05T16:30:49.521Z,10.7
2018-12-05T16:32:49.446Z,9.3
2018-12-05T16:34:49.844Z,8.9
2018-12-05T16:36:50.068Z,8.9
2018-12-05T16:38:50.140Z,10.4
2018-12-05T16:40:50.093Z,8.9
2018-12-05T16:42:50.039Z,8.1
2018-12-05T16:44:50.002Z,8.1
2018-12-05T16:46:50.160Z,10.3
2018-12-05T16:48:50.227Z,11.1
2018-12-05T16:50:50.270Z,9.0
2018-12-05T16:52:50.392Z,8.6
2018-12-05T16:54:50.485Z,8.6
2018-12-05T16:56:49.765Z,8.8
2018-12-05T16:58:49.735Z,8.0
2018-12-05T17:00:49.676Z,11.1
2018-12-05T17:02:49.653Z,9.0
2018-12-05T17:04:49.946Z,9.0
2018-12-05T17:06:50.058Z,7.1
2018-12-05T17:08:50.090Z,9.5
2018-12-05T17:10:50.091Z,10.7
2018-12-05T17:12:50.176Z,11.0
2018-12-05T17:14:50.166Z,11.0
2018-12-05T17:16:50.422Z,11.6
2018-12-05T17:18:49.461Z,10.8
2018-12-05T17:20:50.424Z,10.5
2018-12-05T17:22:49.428Z,10.5
2018-12-05T17:24:49.547Z,10.5
2018-12-05T17:26:49.812Z,10.6
2018-12-05T17:28:49.819Z,10.6
2018-12-05T17:30:49.814Z,9.4
2018-12-05T17:32:49.775Z,9.4
2018-12-05T17:34:50.032Z,11.4
2018-12-05T17:36:50.318Z,11.5
2018-12-05T17:38:50.309Z,8.9
2018-12-05T17:40:50.283Z,11.0
2018-12-05T17:42:50.271Z,11.0
2018-12-05T17:44:50.302Z,10.2
2018-12-05T17:46:49.585Z,10.4
2018-12-05T17:48:49.565Z,10.1
2018-12-05T17:50:49.650Z,10.1
2018-12-05T17:52:49.571Z,10.1
2018-12-05T17:54:49.603Z,10.1
2018-12-05T17:56:49.782Z,10.0
2018-12-05T17:58:49.797Z,10.0
2018-12-05T18:00:49.778Z,11.8
2018-12-05T18:02:49.754Z,11.8
2018-12-05T18:04:50.145Z,10.7
2018-12-05T18:06:50.323Z,10.7
2018-12-05T18:08:50.287Z,8.4
2018-12-05T18:10:50.237Z,8.4
2018-12-05T18:12:50.276Z,9.8
2018-12-05T18:14:50.231Z,10.9
2018-12-05T18:16:49.560Z,9.6
2018-12-05T18:18:49.603Z,9.9
2018-12-05T18:20:49.616Z,9.9
2018-12-05T18:22:49.671Z,10.9
2018-12-05T18:24:49.679Z,12.2
2018-12-05T18:26:49.847Z,12.0
2018-12-05T18:28:49.800Z,11.5
2018-12-05T18:30:49.758Z,11.5
2018-12-05T18:32:49.848Z,10.5
2018-12-05T18:34:50.054Z,12.6
2018-12-05T18:36:50.220Z,11.1
2018-12-05T18:38:50.113Z,12.5
2018-12-05T18:40:50.322Z,12.5
2018-12-05T18:42:50.303Z,14.5
2018-12-05T18:44:50.383Z,10.3
2018-12-05T18:46:49.624Z,9.9
2018-12-05T18:48:49.605Z,14.2
2018-12-05T18:50:49.631Z,14.2
2018-12-05T18:52:49.593Z,9.5
2018-12-05T18:54:49.622Z,11.5
2018-12-05T18:56:49.913Z,11.7
2018-12-05T18:58:49.920Z,12.8
2018-12-05T19:00:49.954Z,12.8
2018-12-05T19:02:50.029Z,12.4
2018-12-05T19:04:50.256Z,12.5
2018-12-05T19:06:50.427Z,8.7
2018-12-05T19:08:50.420Z,8.7
2018-12-05T19:10:49.464Z,13.7
2018-12-05T19:12:49.526Z,11.0
2018-12-05T19:14:49.582Z,11.0
2018-12-05T19:16:49.921Z,12.2
2018-12-05T19:18:49.918Z,12.2
2018-12-05T19:20:49.938Z,10.5
2018-12-05T19:22:49.910Z,11.8
2018-12-05T19:24:49.915Z,11.3
2018-12-05T19:26:50.148Z,11.3
2018-12-05T19:28:50.215Z,13.6
2018-12-05T19:30:50.215Z,8.5
2018-12-05T19:32:50.276Z,7.4
2018-12-05T19:34:49.908Z,7.4
2018-12-05T19:36:50.089Z,8.1
2018-12-05T19:38:50.044Z,8.1
2018-12-05T19:40:50.056Z,10.1
2018-12-05T19:42:50.049Z,10.5
2018-12-05T19:44:49.992Z,9.4
2018-12-05T19:46:50.191Z,6.9
2018-12-05T19:48:50.217Z,6.9
2018-12-05T19:50:50.173Z,10.7
2018-12-05T19:52:50.177Z,10.2
2018-12-05T19:54:50.165Z,8.8
2018-12-05T19:56:50.419Z,8.8
2018-12-05T19:58:49.457Z,10.5
2018-12-05T20:00:50.390Z,8.9
2018-12-05T20:02:50.408Z,8.9
2018-12-05T20:04:49.711Z,7.0
2018-12-05T20:06:49.910Z,7.0
2018-12-05T20:08:49.882Z,6.3
2018-12-05T20:10:49.883Z,6.7
2018-12-05T20:12:49.897Z,5.6
2018-12-05T20:14:49.893Z,5.6
2018-12-05T20:16:50.055Z,9.0
2018-12-05T20:18:50.051Z,6.0
2018-12-05T20:20:49.982Z,8.7
2018-12-05T20:22:49.956Z,8.7
2018-12-05T20:24:49.952Z,7.9
2018-12-05T20:26:50.147Z,6.6
2018-12-05T20:28:50.161Z,8.3
2018-12-05T20:30:50.122Z,6.2
2018-12-05T20:32:50.286Z,8.1
2018-12-05T20:34:49.715Z,8.1
2018-12-05T20:36:49.926Z,8.0
2018-12-05T20:38:49.917Z,5.0
2018-12-05T20:40:49.998Z,7.8
2018-12-05T20:42:50.083Z,8.5
2018-12-05T20:44:50.075Z,8.5
2018-12-05T20:46:50.243Z,8.8
2018-12-05T20:48:50.197Z,4.7
2018-12-05T20:50:50.206Z,9.2
2018-12-05T20:52:50.155Z,6.7
2018-12-05T20:54:50.144Z,6.7
2018-12-05T20:56:49.468Z,5.9
2018-12-05T20:58:49.515Z,6.2
2018-12-05T21:00:49.565Z,6.5
2018-12-05T21:02:49.587Z,7.8
2018-12-05T21:04:49.925Z,7.8
2018-12-05T21:06:50.045Z,9.0
2018-12-05T21:08:50.095Z,9.3
2018-12-05T21:10:50.058Z,7.2
2018-12-05T21:12:50.097Z,6.6
2018-12-05T21:14:50.080Z,6.6
2018-12-05T21:16:50.264Z,4.8
2018-12-05T21:18:50.378Z,6.6
2018-12-05T21:20:50.393Z,6.1
2018-12-05T21:22:50.365Z,6.1
2018-12-05T21:24:50.405Z,7.4
2018-12-05T21:26:49.654Z,7.5
2018-12-05T21:28:49.676Z,7.2
2018-12-05T21:30:49.703Z,6.3
2018-12-05T21:32:49.743Z,6.3
2018-12-05T21:34:50.022Z,7.6
2018-12-05T21:36:50.258Z,6.4
2018-12-05T21:38:50.265Z,6.4
2018-12-05T21:40:50.257Z,7.1
2018-12-05T21:42:50.253Z,7.1
2018-12-05T21:44:50.265Z,4.7
2018-12-05T21:46:49.458Z,6.9
2018-12-05T21:48:49.471Z,6.9
2018-12-05T21:50:49.554Z,8.5
2018-12-05T21:52:49.549Z,8.5
2018-12-05T21:54:49.649Z,5.3
2018-12-05T21:56:49.852Z,6.9
2018-12-05T21:58:49.929Z,8.6
2018-12-05T22:00:50.006Z,7.8
2018-12-05T22:02:50.060Z,7.8
2018-12-05T22:04:50.438Z,7.3
2018-12-05T22:06:49.674Z,6.2
2018-12-05T22:08:49.655Z,6.0
2018-12-05T22:10:49.678Z,6.0
2018-12-05T22:12:49.710Z,8.7
2018-12-05T22:14:49.749Z,8.2
2018-12-05T22:16:49.997Z,8.7
2018-12-05T22:18:49.956Z,5.9
2018-12-05T22:20:49.963Z,5.9
2018-12-05T22:22:49.954Z,8.1
2018-12-05T22:24:49.995Z,11.4
2018-12-05T22:26:50.119Z,11.4
2018-12-05T22:28:50.015Z,8.0
2018-12-05T22:30:50.066Z,8.0
2018-12-05T22:32:50.017Z,7.1
2018-12-05T22:34:50.347Z,7.1
2018-12-05T22:36:49.685Z,7.4
2018-12-05T22:38:49.716Z,8.5
2018-12-05T22:40:49.797Z,8.5
2018-12-05T22:42:49.970Z,6.6
2018-12-05T22:44:49.976Z,8.5
2018-12-05T22:46:50.099Z,9.4
2018-12-05T22:48:50.123Z,10.6
2018-12-05T22:50:50.127Z,10.6
2018-12-05T22:52:50.157Z,7.9
2018-12-05T22:54:50.133Z,6.9
2018-12-05T22:56:50.242Z,6.9
2018-12-05T22:58:50.299Z,7.8
2018-12-05T23:00:50.371Z,7.3
2018-12-05T23:02:50.340Z,7.3
2018-12-05T23:04:49.635Z,6.9
2018-12-05T23:06:49.887Z,6.2
2018-12-05T23:08:49.930Z,6.2
2018-12-05T23:10:49.916Z,6.7
2018-12-05T23:12:49.993Z,8.4
2018-12-05T23:14:49.990Z,8.4
2018-12-05T23:16:50.123Z,7.3
2018-12-05T23:18:50.168Z,7.3
2018-12-05T23:20:50.210Z,8.1
2018-12-05T23:22:50.177Z,8.9
2018-12-05T23:24:50.143Z,6.2
2018-12-05T23:26:50.370Z,6.4
2018-12-05T23:28:50.410Z,6.4
2018-12-05T23:30:50.404Z,8.4
2018-12-05T23:32:49.520Z,6.1
2018-12-05T23:34:49.820Z,6.4
2018-12-05T23:36:50.055Z,6.7
2018-12-05T23:38:50.072Z,6.7
2018-12-05T23:40:50.107Z,8.1
2018-12-05T23:42:50.104Z,6.0
2018-12-05T23:44:50.024Z,7.3
2018-12-05T23:46:50.215Z,7.3
2018-12-05T23:48:50.186Z,7.3
2018-12-05T23:50:50.179Z,7.1
2018-12-05T23:52:50.175Z,6.0
2018-12-05T23:54:50.086Z,7.0
2018-12-05T23:56:50.282Z,7.0
2018-12-05T23:58:50.288Z,7.8
